Wick, Iowa
Current Conditions -  °F | °C
As of 5:35 PM on Wednesday 22 Oct 2014 (Local Time) from KI75 Reporting Station
Broken Clouds Broken Clouds  
Wind Chill: 18°   Ceiling: 7500
Heat Index: 18°   Visibility: 10mi
Dew Point:   Wind: 10mph
Humidity: 57%   Direction: 130°SE
Pressure: 30.11"   Gusts: NA
Location:  41.2933°N, 93.7977°W
Report Text: KI75 222235Z AUTO 13009KT 10SM SCT045 SCT050 BKN075 18/09 A3011 RMK AO2 T01770090
Loading
Personal Weather Stations






























Interactive Weather Map
Tropical Storm Tracking
New forecast layout! Learn more

10-Day Weather Forecast

Advertisements
Track Severe Weather on mobile